Time;durP1;ratioP1;P1;durP2;ratioP2;P2;SDS_P1;SDS_P2;PMS_P1;PMS_P2;Temp;Humidity;BMP_temperature;BMP_pressure;BME280_temperature;BME280_humidity;BME280_pressure;Samples;Min_cycle;Max_cycle;Signal;HPM_P1;HPM_P2
2024/03/21 00:00:09;;;;;;;2.60;1.90;;;14.60;99.90;;;;;;4990695;28;20516;-48
2024/03/21 00:02:38;;;;;;;3.43;2.33;;;14.60;99.90;;;;;;4991617;28;20430;-47
2024/03/21 00:05:06;;;;;;;2.93;2.63;;;14.60;99.90;;;;;;4999421;28;20461;-47
2024/03/21 00:07:33;;;;;;;2.97;2.10;;;14.60;99.90;;;;;;4995705;28;20449;-47
2024/03/21 00:09:59;;;;;;;3.60;2.23;;;14.60;99.90;;;;;;5000017;28;20438;-48
2024/03/21 00:12:27;;;;;;;3.53;2.43;;;14.60;99.90;;;;;;4990978;28;20940;-47
2024/03/21 00:14:54;;;;;;;4.63;2.17;;;14.60;99.90;;;;;;4997799;28;20483;-48
2024/03/21 00:17:22;;;;;;;2.50;1.60;;;14.60;99.90;;;;;;4994877;28;20465;-47
2024/03/21 00:19:48;;;;;;;1.77;1.57;;;14.60;99.90;;;;;;4999857;28;20495;-46
2024/03/21 00:22:15;;;;;;;2.10;1.80;;;14.60;99.90;;;;;;4990891;28;20440;-47
2024/03/21 00:24:41;;;;;;;3.97;2.80;;;14.60;99.90;;;;;;4996572;28;20437;-47
2024/03/21 00:27:08;;;;;;;5.53;2.47;;;14.60;99.90;;;;;;4990632;28;20445;-47
2024/03/21 00:29:34;;;;;;;2.17;1.97;;;14.60;99.90;;;;;;4999520;28;20535;-47
2024/03/21 00:32:03;;;;;;;2.20;1.53;;;14.60;99.90;;;;;;5004926;28;20869;-47
2024/03/21 00:34:29;;;;;;;2.83;1.70;;;14.60;99.90;;;;;;4993903;28;20473;-47
2024/03/21 00:36:56;;;;;;;3.47;2.50;;;14.60;99.90;;;;;;4997363;28;20426;-47
2024/03/21 00:39:23;;;;;;;3.63;2.33;;;14.60;99.90;;;;;;4998010;28;21043;-47
2024/03/21 00:41:51;;;;;;;4.23;3.30;;;14.60;99.90;;;;;;4998622;28;20445;-48
2024/03/21 00:44:17;;;;;;;4.00;3.10;;;14.60;99.90;;;;;;4989442;28;20525;-48
2024/03/21 00:46:44;;;;;;;2.60;1.43;;;14.60;99.90;;;;;;4988865;28;20470;-47
2024/03/21 00:49:16;;;;;;;2.87;2.27;;;14.60;99.90;;;;;;4994339;28;21008;-47
2024/03/21 00:51:43;;;;;;;3.40;2.10;;;14.60;99.90;;;;;;4998942;28;20480;-47
2024/03/21 00:54:09;;;;;;;2.50;2.30;;;14.60;99.90;;;;;;4996151;28;20935;-47
2024/03/21 00:56:38;;;;;;;3.77;2.60;;;14.60;99.90;;;;;;4998293;28;20518;-47
2024/03/21 00:59:05;;;;;;;3.13;1.83;;;14.60;99.90;;;;;;4990098;28;20919;-48
2024/03/21 01:01:32;;;;;;;1.97;1.60;;;14.60;99.90;;;;;;4998903;28;20509;-47
2024/03/21 01:03:59;;;;;;;3.03;2.30;;;14.60;99.90;;;;;;4997845;28;20452;-48
2024/03/21 01:06:27;;;;;;;2.77;2.00;;;14.60;99.90;;;;;;5001652;28;20457;-48
2024/03/21 01:08:53;;;;;;;2.10;1.80;;;14.60;99.90;;;;;;4991653;28;20501;-47
2024/03/21 01:11:21;;;;;;;3.57;2.30;;;14.60;99.90;;;;;;5007658;28;20528;-48
2024/03/21 01:13:47;;;;;;;2.67;1.70;;;14.60;99.90;;;;;;5002135;28;20433;-47
2024/03/21 01:16:14;;;;;;;2.30;1.70;;;14.60;99.90;;;;;;4990637;28;20461;-47
2024/03/21 01:18:40;;;;;;;2.70;1.73;;;14.60;99.90;;;;;;5001187;28;20470;-47
2024/03/21 01:21:09;;;;;;;4.50;2.70;;;14.60;99.90;;;;;;4989859;28;20438;-47
2024/03/21 01:23:36;;;;;;;3.17;1.73;;;14.60;99.90;;;;;;5002669;28;20448;-47
2024/03/21 01:26:04;;;;;;;2.10;1.83;;;14.60;99.90;;;;;;4998003;28;20493;-47
2024/03/21 01:28:30;;;;;;;2.10;1.90;;;14.60;99.90;;;;;;5005880;28;20445;-47
2024/03/21 01:30:59;;;;;;;2.43;2.00;;;14.60;99.90;;;;;;4992134;28;20524;-48
2024/03/21 01:33:26;;;;;;;2.03;1.60;;;14.60;99.90;;;;;;4998154;28;20441;-48
2024/03/21 01:35:55;;;;;;;2.73;2.00;;;14.60;99.90;;;;;;4997709;28;20446;-47
2024/03/21 01:38:21;;;;;;;2.10;1.53;;;14.60;99.90;;;;;;5001635;28;20479;-47
2024/03/21 01:40:50;;;;;;;3.03;1.97;;;14.50;99.90;;;;;;4997656;28;20460;-47
2024/03/21 01:43:21;;;;;;;2.07;1.73;;;14.50;99.90;;;;;;4989824;28;20438;-48
2024/03/21 01:46:10;;;;;;;3.37;2.33;;;14.50;99.90;;;;;;4998622;28;20457;-48
2024/03/21 01:48:37;;;;;;;3.80;2.90;;;14.50;99.90;;;;;;5003616;28;20533;-48
2024/03/21 01:51:06;;;;;;;3.20;2.23;;;14.50;99.90;;;;;;4993558;28;20828;-48
2024/03/21 01:53:33;;;;;;;2.00;1.80;;;14.50;99.90;;;;;;4993895;28;20434;-47
2024/03/21 01:56:02;;;;;;;2.27;1.90;;;14.50;99.90;;;;;;4997273;28;20581;-47
2024/03/21 01:58:28;;;;;;;3.20;2.13;;;14.50;99.90;;;;;;5003573;28;20472;-47
2024/03/21 02:00:55;;;;;;;5.10;2.83;;;14.50;99.90;;;;;;4993135;28;20865;-48
2024/03/21 02:03:22;;;;;;;3.87;2.70;;;14.50;99.90;;;;;;4993595;28;20529;-47
2024/03/21 02:05:49;;;;;;;3.03;2.07;;;14.50;99.90;;;;;;5001874;28;20507;-47
2024/03/21 02:08:15;;;;;;;2.60;1.67;;;14.50;99.90;;;;;;4994891;28;20450;-48
2024/03/21 02:10:42;;;;;;;2.40;2.13;;;14.50;99.90;;;;;;4996120;28;20543;-48
2024/03/21 02:13:09;;;;;;;3.87;2.10;;;14.50;99.90;;;;;;5008469;28;20440;-47
2024/03/21 02:15:37;;;;;;;2.87;2.03;;;14.50;99.90;;;;;;4993418;28;20433;-49
2024/03/21 02:18:03;;;;;;;3.03;2.20;;;14.50;99.90;;;;;;5002503;28;20547;-48
2024/03/21 02:20:30;;;;;;;2.43;1.83;;;14.50;99.90;;;;;;4998794;28;20994;-47
2024/03/21 02:22:59;;;;;;;1.83;1.33;;;14.50;99.90;;;;;;5005291;28;20511;-47
2024/03/21 02:25:27;;;;;;;3.47;1.60;;;14.50;99.90;;;;;;4993252;28;20883;-47
2024/03/21 02:27:53;;;;;;;2.67;2.13;;;14.50;99.90;;;;;;4992532;28;20548;-48
2024/03/21 02:30:20;;;;;;;2.60;1.97;;;14.50;99.90;;;;;;5006638;28;20573;-47
2024/03/21 02:32:47;;;;;;;4.00;2.00;;;14.50;99.90;;;;;;4992675;28;20447;-48
2024/03/21 02:35:14;;;;;;;2.37;1.90;;;14.50;99.90;;;;;;5005156;28;20520;-48
2024/03/21 02:37:40;;;;;;;2.43;1.83;;;14.50;99.90;;;;;;4993088;28;20516;-48
2024/03/21 02:40:11;;;;;;;2.00;1.80;;;14.50;99.90;;;;;;4997561;28;21199;-47
2024/03/21 02:42:37;;;;;;;2.37;2.17;;;14.50;99.90;;;;;;4997700;28;20527;-48
2024/03/21 02:45:04;;;;;;;2.70;1.70;;;14.50;99.90;;;;;;4997454;28;20578;-48
2024/03/21 02:47:31;;;;;;;1.93;1.70;;;14.50;99.90;;;;;;4994901;28;20462;-47
2024/03/21 02:49:58;;;;;;;2.70;2.10;;;14.50;99.90;;;;;;4993317;28;20528;-47
2024/03/21 02:52:24;;;;;;;1.77;1.37;;;14.50;99.90;;;;;;4999960;28;20477;-47
2024/03/21 02:54:51;;;;;;;3.30;2.30;;;14.50;99.90;;;;;;5003950;28;20430;-48
2024/03/21 02:57:18;;;;;;;2.90;2.13;;;14.40;99.90;;;;;;5000316;28;20442;-48
2024/03/21 02:59:45;;;;;;;2.30;1.67;;;14.40;99.90;;;;;;4999340;28;20469;-48
2024/03/21 03:02:13;;;;;;;3.80;1.77;;;14.40;99.90;;;;;;4993977;28;20434;-48
2024/03/21 03:04:40;;;;;;;3.83;2.77;;;14.50;99.90;;;;;;5000250;28;20521;-47
2024/03/21 03:07:07;;;;;;;3.20;2.43;;;14.50;99.90;;;;;;5000060;28;20572;-48
2024/03/21 03:09:34;;;;;;;3.03;2.50;;;14.50;99.90;;;;;;5001762;28;20460;-48
2024/03/21 03:12:00;;;;;;;3.50;2.37;;;14.40;99.90;;;;;;4996953;28;20491;-48
2024/03/21 03:14:28;;;;;;;3.10;2.40;;;14.40;99.90;;;;;;5005348;28;20465;-48
2024/03/21 03:16:54;;;;;;;3.00;2.70;;;14.50;99.90;;;;;;5000356;28;20437;-48
2024/03/21 03:19:21;;;;;;;4.27;3.03;;;14.40;99.90;;;;;;4994899;28;20998;-48
2024/03/21 03:21:47;;;;;;;3.40;2.37;;;14.40;99.90;;;;;;4996421;28;20461;-48
2024/03/21 03:24:15;;;;;;;3.20;2.90;;;14.40;99.90;;;;;;5000439;28;20777;-48
2024/03/21 03:26:41;;;;;;;3.60;3.27;;;14.40;99.90;;;;;;4999226;28;20839;-48
2024/03/21 03:29:08;;;;;;;2.57;2.17;;;14.40;99.90;;;;;;4997790;28;20445;-48
2024/03/21 03:31:36;;;;;;;3.93;3.10;;;14.40;99.90;;;;;;4998366;28;20470;-48
2024/03/21 03:36:47;;;;;;;4.20;3.40;;;14.40;99.90;;;;;;5001969;28;20438;-48
2024/03/21 03:39:14;;;;;;;3.87;3.43;;;14.40;99.90;;;;;;4988195;28;21078;-48
2024/03/21 03:41:40;;;;;;;4.47;3.70;;;14.40;99.90;;;;;;4990022;28;20947;-48
2024/03/21 03:44:08;;;;;;;3.00;2.57;;;14.40;99.90;;;;;;4998577;28;20466;-48
2024/03/21 03:46:36;;;;;;;3.80;3.03;;;14.40;99.90;;;;;;4991053;28;20450;-48
2024/03/21 03:49:03;;;;;;;3.97;2.80;;;14.40;99.90;;;;;;5000904;28;20452;-48
2024/03/21 03:51:30;;;;;;;4.83;3.23;;;14.40;99.90;;;;;;4997996;28;20585;-47
2024/03/21 03:53:56;;;;;;;5.17;3.30;;;14.40;99.90;;;;;;5000362;28;20441;-48
2024/03/21 03:56:23;;;;;;;2.77;2.30;;;14.40;99.90;;;;;;4995228;28;20471;-48
2024/03/21 03:58:50;;;;;;;3.63;2.70;;;14.40;99.90;;;;;;4995196;28;20454;-47
2024/03/21 04:01:17;;;;;;;3.80;3.43;;;14.40;99.90;;;;;;4996770;28;20455;-47
2024/03/21 04:03:44;;;;;;;4.00;3.50;;;14.40;99.90;;;;;;5006551;28;20482;-47
2024/03/21 04:06:12;;;;;;;4.47;3.60;;;14.40;99.90;;;;;;5008515;28;20873;-48
2024/03/21 04:08:38;;;;;;;4.60;4.10;;;14.40;99.90;;;;;;5004908;28;20551;-47
2024/03/21 04:11:05;;;;;;;6.37;4.60;;;14.30;99.90;;;;;;5000853;28;21007;-48
2024/03/21 04:13:31;;;;;;;5.87;5.30;;;14.30;99.90;;;;;;4999916;28;20430;-47
2024/03/21 04:15:58;;;;;;;4.07;3.33;;;14.40;99.90;;;;;;4999879;28;20441;-47
2024/03/21 04:18:24;;;;;;;5.73;3.80;;;14.40;99.90;;;;;;4991840;28;21206;-47
2024/03/21 04:20:54;;;;;;;4.40;3.40;;;14.40;99.90;;;;;;4990878;28;20445;-47
2024/03/21 04:23:21;;;;;;;5.33;4.73;;;14.30;99.90;;;;;;4991600;28;20542;-48
2024/03/21 04:25:47;;;;;;;5.20;3.77;;;14.30;99.90;;;;;;4994009;28;21026;-47
2024/03/21 04:28:14;;;;;;;5.37;4.37;;;14.30;99.90;;;;;;4993310;28;20989;-47
2024/03/21 04:30:40;;;;;;;5.27;4.40;;;14.30;99.90;;;;;;4994477;28;20458;-48
2024/03/21 04:33:07;;;;;;;5.27;4.77;;;14.30;99.90;;;;;;4998621;28;20433;-47
2024/03/21 04:35:33;;;;;;;6.93;6.23;;;14.30;99.90;;;;;;4990247;28;20529;-47
2024/03/21 04:38:02;;;;;;;6.87;5.80;;;14.30;99.90;;;;;;4996638;28;21033;-47
2024/03/21 04:40:29;;;;;;;7.70;6.57;;;14.30;99.90;;;;;;4998550;28;20973;-47
2024/03/21 04:42:57;;;;;;;6.43;5.37;;;14.30;99.90;;;;;;4993020;28;20459;-48
2024/03/21 04:45:24;;;;;;;5.93;5.10;;;14.30;99.90;;;;;;4990537;28;20442;-47
2024/03/21 04:47:51;;;;;;;5.93;5.33;;;14.30;99.90;;;;;;4988793;28;20509;-47
2024/03/21 04:50:19;;;;;;;5.77;5.17;;;14.30;99.90;;;;;;4990710;28;20953;-47
2024/03/21 04:52:46;;;;;;;9.90;6.33;;;14.30;99.90;;;;;;4998975;28;20438;-47
2024/03/21 04:55:14;;;;;;;5.67;5.07;;;14.30;99.90;;;;;;4996793;28;20441;-47
2024/03/21 04:57:40;;;;;;;6.20;4.63;;;14.30;99.90;;;;;;4996265;28;20528;-47
2024/03/21 05:00:10;;;;;;;8.33;6.33;;;14.30;99.90;;;;;;4992458;28;20499;-48
2024/03/21 05:02:36;;;;;;;6.97;5.00;;;14.30;99.90;;;;;;4990709;28;20866;-46
2024/03/21 05:05:04;;;;;;;5.30;4.13;;;14.30;99.90;;;;;;5004482;28;20459;-47
2024/03/21 05:07:30;;;;;;;6.67;6.00;;;14.30;99.90;;;;;;4997399;28;20560;-47
2024/03/21 05:09:58;;;;;;;5.90;4.53;;;14.30;99.90;;;;;;4989374;28;20445;-48
2024/03/21 05:12:25;;;;;;;7.70;5.60;;;14.30;99.90;;;;;;5001984;28;20535;-47
2024/03/21 05:14:52;;;;;;;6.40;5.50;;;14.30;99.90;;;;;;4998265;28;20516;-48
2024/03/21 05:17:20;;;;;;;5.70;5.10;;;14.30;99.90;;;;;;4998100;28;20869;-47
2024/03/21 05:19:47;;;;;;;7.90;5.43;;;14.20;99.90;;;;;;4993521;28;20835;-48
2024/03/21 05:22:13;;;;;;;6.60;5.90;;;14.20;99.90;;;;;;4990184;28;20436;-47
2024/03/21 05:24:40;;;;;;;5.87;4.40;;;14.20;99.90;;;;;;4990708;28;20480;-48
2024/03/21 05:27:07;;;;;;;5.43;4.17;;;14.20;99.90;;;;;;4996894;28;20469;-47
2024/03/21 05:29:36;;;;;;;5.20;4.70;;;14.20;99.90;;;;;;4976993;28;20457;-47
2024/03/21 05:32:02;;;;;;;6.33;4.90;;;14.20;99.90;;;;;;4990387;28;20532;-48
2024/03/21 05:34:30;;;;;;;6.47;4.63;;;14.20;99.90;;;;;;4998580;28;20440;-47
2024/03/21 05:36:56;;;;;;;5.70;5.03;;;14.20;99.90;;;;;;5000021;28;20473;-49
2024/03/21 05:39:23;;;;;;;8.27;5.77;;;14.30;99.90;;;;;;4994226;28;20985;-47
2024/03/21 05:41:49;;;;;;;6.23;5.63;;;14.20;99.90;;;;;;4993846;28;20455;-49
2024/03/21 05:44:17;;;;;;;6.83;4.70;;;14.20;99.90;;;;;;4996982;28;21292;-47
2024/03/21 05:46:44;;;;;;;4.63;4.23;;;14.20;99.90;;;;;;4989772;28;20565;-47
2024/03/21 05:49:13;;;;;;;6.20;5.37;;;14.20;99.90;;;;;;4993861;28;20544;-47
2024/03/21 05:51:39;;;;;;;7.53;5.80;;;14.20;99.90;;;;;;4998446;28;20745;-47
2024/03/21 05:54:07;;;;;;;8.17;6.53;;;14.20;99.90;;;;;;4992207;28;20442;-47
2024/03/21 05:56:34;;;;;;;7.13;5.90;;;14.20;99.90;;;;;;4992680;28;20460;-47
2024/03/21 05:59:01;;;;;;;7.53;5.77;;;14.20;99.90;;;;;;4991550;28;20910;-48
2024/03/21 06:01:32;;;;;;;8.30;6.10;;;14.20;99.90;;;;;;5003426;28;20491;-47
2024/03/21 06:04:01;;;;;;;9.40;6.97;;;14.20;99.90;;;;;;4998198;28;20430;-50
2024/03/21 06:06:28;;;;;;;7.63;6.60;;;14.20;99.90;;;;;;4990367;28;20485;-47
2024/03/21 06:08:56;;;;;;;6.70;6.00;;;14.20;99.90;;;;;;4992744;28;20549;-49
2024/03/21 06:11:22;;;;;;;9.90;7.07;;;14.20;99.90;;;;;;4995839;28;20487;-47
2024/03/21 06:13:50;;;;;;;9.10;7.30;;;14.20;99.90;;;;;;4994416;28;20456;-49
2024/03/21 06:16:17;;;;;;;7.70;6.30;;;14.20;99.90;;;;;;4998698;28;20560;-48
2024/03/21 06:18:44;;;;;;;7.40;6.60;;;14.20;99.90;;;;;;4995290;28;20500;-48
2024/03/21 06:21:11;;;;;;;8.17;6.97;;;14.20;99.90;;;;;;5000911;28;20538;-48
2024/03/21 06:23:38;;;;;;;6.60;5.47;;;14.20;99.90;;;;;;4996074;28;20452;-47
2024/03/21 06:26:05;;;;;;;9.00;7.43;;;14.10;99.90;;;;;;4992041;28;20536;-49
2024/03/21 06:28:32;;;;;;;9.20;8.00;;;14.20;99.90;;;;;;4992454;28;20549;-47
2024/03/21 06:30:58;;;;;;;9.10;7.00;;;14.10;99.90;;;;;;4999627;28;20437;-50
2024/03/21 06:33:26;;;;;;;9.77;7.77;;;14.20;99.90;;;;;;5002420;28;20453;-48
2024/03/21 06:35:52;;;;;;;7.00;6.30;;;14.10;99.90;;;;;;5007455;28;20554;-47
2024/03/21 06:38:20;;;;;;;6.90;5.50;;;14.10;99.90;;;;;;4991727;28;20470;-47
2024/03/21 06:40:47;;;;;;;7.53;6.40;;;14.10;99.90;;;;;;4985221;28;20460;-47
2024/03/21 06:43:14;;;;;;;13.03;7.90;;;14.10;99.90;;;;;;5000447;28;20509;-48
2024/03/21 06:45:40;;;;;;;8.50;5.50;;;14.10;99.90;;;;;;4997801;28;20442;-47
2024/03/21 06:48:08;;;;;;;6.60;4.83;;;14.10;99.90;;;;;;4998841;28;20691;-47
2024/03/21 06:50:35;;;;;;;9.93;7.30;;;14.10;99.90;;;;;;5001220;28;20814;-48
2024/03/21 06:53:02;;;;;;;13.30;9.57;;;14.10;99.90;;;;;;4996164;28;20613;-47
2024/03/21 06:55:29;;;;;;;7.60;6.80;;;14.10;99.90;;;;;;5011300;28;20443;-47
2024/03/21 06:57:57;;;;;;;8.87;7.37;;;14.10;99.90;;;;;;5019594;28;20977;-47
2024/03/21 07:00:26;;;;;;;9.13;7.50;;;14.10;99.90;;;;;;5006846;28;20459;-48
2024/03/21 07:02:55;;;;;;;9.60;6.80;;;14.10;99.90;;;;;;4977872;28;21054;-47
2024/03/21 07:05:23;;;;;;;7.07;6.30;;;14.10;99.90;;;;;;4997142;28;20520;-47
2024/03/21 07:07:51;;;;;;;10.93;7.30;;;14.10;99.90;;;;;;5002791;28;20493;-48
2024/03/21 07:10:18;;;;;;;7.30;5.63;;;14.10;99.90;;;;;;5000209;28;20469;-48
2024/03/21 07:12:47;;;;;;;8.77;6.87;;;14.10;99.90;;;;;;5004520;28;20445;-47
2024/03/21 07:15:14;;;;;;;12.47;7.60;;;14.10;99.90;;;;;;5002645;28;20817;-46
2024/03/21 07:17:42;;;;;;;9.80;6.90;;;14.10;99.90;;;;;;5000039;28;20520;-48
2024/03/21 07:20:10;;;;;;;8.63;7.43;;;14.10;99.90;;;;;;5004751;28;20531;-46
2024/03/21 07:22:37;;;;;;;7.77;7.00;;;14.10;99.90;;;;;;5003579;28;20533;-47
2024/03/21 07:25:06;;;;;;;10.23;7.30;;;14.10;99.90;;;;;;4999200;28;20929;-48
2024/03/21 07:27:33;;;;;;;9.27;6.83;;;14.10;99.90;;;;;;5004442;28;20473;-47
2024/03/21 07:30:00;;;;;;;8.10;6.40;;;14.10;99.90;;;;;;4975331;28;20426;-46
2024/03/21 07:32:27;;;;;;;7.90;6.60;;;14.10;99.90;;;;;;4993997;28;20450;-47
2024/03/21 07:34:54;;;;;;;8.57;5.83;;;14.10;99.90;;;;;;4998297;28;20479;-49
2024/03/21 07:37:21;;;;;;;8.30;6.50;;;14.00;99.90;;;;;;4992028;28;20436;-48
2024/03/21 07:39:47;;;;;;;8.67;6.23;;;14.10;99.90;;;;;;5004018;28;20479;-47
2024/03/21 07:42:14;;;;;;;6.93;6.10;;;14.00;99.90;;;;;;5002583;28;20842;-48
2024/03/21 07:44:41;;;;;;;6.50;5.80;;;14.00;99.90;;;;;;4991819;28;20486;-47
2024/03/21 07:47:09;;;;;;;5.70;5.10;;;14.00;99.90;;;;;;4997097;28;20456;-47
2024/03/21 07:49:35;;;;;;;4.97;4.50;;;14.00;99.90;;;;;;5004325;28;20523;-48
2024/03/21 07:52:03;;;;;;;6.97;5.80;;;14.00;99.90;;;;;;4998365;28;20545;-47
2024/03/21 07:54:29;;;;;;;6.40;5.33;;;14.00;99.90;;;;;;5005090;28;20524;-47
2024/03/21 07:56:58;;;;;;;6.23;4.83;;;14.00;99.90;;;;;;4996306;28;20949;-48
2024/03/21 07:59:24;;;;;;;7.30;5.00;;;14.00;99.90;;;;;;4990192;28;20457;-47
2024/03/21 08:01:52;;;;;;;6.80;5.70;;;14.10;99.90;;;;;;4992287;28;20422;-49
2024/03/21 08:04:19;;;;;;;5.80;5.30;;;14.00;99.90;;;;;;4991960;28;20868;-49
2024/03/21 08:06:47;;;;;;;9.23;6.17;;;14.00;99.90;;;;;;4991329;28;20837;-47
2024/03/21 08:09:13;;;;;;;7.37;6.00;;;14.00;99.90;;;;;;4990888;28;20556;-47
2024/03/21 08:11:40;;;;;;;7.10;6.40;;;14.00;99.90;;;;;;4995487;28;20441;-48
2024/03/21 08:14:07;;;;;;;7.00;5.83;;;14.00;99.90;;;;;;4997902;28;20459;-48
2024/03/21 08:16:35;;;;;;;7.20;6.10;;;14.00;99.90;;;;;;4993733;28;20524;-47
2024/03/21 08:19:01;;;;;;;8.80;6.87;;;14.00;99.90;;;;;;4993069;28;20559;-47
2024/03/21 08:21:29;;;;;;;7.20;6.47;;;14.00;99.90;;;;;;4996955;28;20438;-47
2024/03/21 08:23:55;;;;;;;8.57;5.70;;;14.00;99.90;;;;;;5001562;28;21006;-47
2024/03/21 08:26:22;;;;;;;7.10;6.40;;;14.00;99.90;;;;;;4990722;28;20448;-47
2024/03/21 08:28:49;;;;;;;7.43;5.80;;;14.00;99.90;;;;;;4995632;28;20910;-47
2024/03/21 08:31:16;;;;;;;8.10;6.57;;;14.00;99.90;;;;;;4998859;28;20470;-47
2024/03/21 08:33:42;;;;;;;8.30;6.30;;;14.00;99.90;;;;;;5001347;28;20944;-49
2024/03/21 08:36:09;;;;;;;11.27;7.40;;;14.00;99.90;;;;;;4998015;28;20579;-48
2024/03/21 08:38:37;;;;;;;9.95;8.23;;;14.00;99.90;;;;;;4998669;28;20437;-47
2024/03/21 08:41:06;;;;;;;7.53;6.33;;;13.90;99.90;;;;;;4993134;28;20469;-47
2024/03/21 08:43:33;;;;;;;6.63;5.73;;;13.90;99.90;;;;;;4998245;28;20457;-48
2024/03/21 08:46:00;;;;;;;9.40;7.50;;;13.90;99.90;;;;;;5003045;28;20488;-49
2024/03/21 08:48:26;;;;;;;8.10;6.83;;;14.00;99.90;;;;;;4999943;28;21065;-47
2024/03/21 08:50:53;;;;;;;9.10;6.90;;;13.90;99.90;;;;;;5005690;28;20468;-47
2024/03/21 08:53:19;;;;;;;12.77;8.47;;;13.90;99.90;;;;;;5006449;28;20555;-47
2024/03/21 08:55:48;;;;;;;8.83;7.03;;;13.90;99.90;;;;;;4997787;28;20477;-47
2024/03/21 08:58:14;;;;;;;9.20;7.60;;;13.90;99.90;;;;;;5000429;28;20471;-47
2024/03/21 09:00:41;;;;;;;7.93;6.50;;;13.90;99.90;;;;;;5001352;28;20532;-47
2024/03/21 09:03:08;;;;;;;7.40;6.70;;;13.90;99.90;;;;;;5006120;28;20437;-47
2024/03/21 09:05:35;;;;;;;9.33;7.30;;;13.90;99.90;;;;;;5000871;28;20491;-47
2024/03/21 09:08:02;;;;;;;9.90;7.43;;;13.90;99.90;;;;;;4994028;28;20473;-48
2024/03/21 09:10:29;;;;;;;7.03;6.33;;;13.90;99.90;;;;;;4998421;28;20436;-48
2024/03/21 09:12:57;;;;;;;9.53;7.73;;;13.90;99.90;;;;;;4995456;28;20490;-47
2024/03/21 09:15:24;;;;;;;8.67;6.60;;;13.90;99.90;;;;;;4996883;28;20483;-47
2024/03/21 09:17:50;;;;;;;9.73;7.17;;;13.90;99.90;;;;;;4991812;28;20938;-47
2024/03/21 09:20:18;;;;;;;10.30;7.17;;;13.90;99.90;;;;;;5001740;28;20968;-46
2024/03/21 09:22:45;;;;;;;8.60;6.63;;;13.90;99.90;;;;;;4999131;28;20528;-48
2024/03/21 09:25:12;;;;;;;10.23;8.90;;;13.90;99.90;;;;;;4996010;28;20441;-47
2024/03/21 09:27:39;;;;;;;9.43;8.40;;;13.90;99.90;;;;;;4990828;28;20585;-47
2024/03/21 09:30:08;;;;;;;10.17;8.97;;;13.90;99.90;;;;;;5005552;28;20520;-47
2024/03/21 09:32:35;;;;;;;9.37;8.27;;;13.90;99.90;;;;;;4998296;28;20445;-47
2024/03/21 09:35:03;;;;;;;10.37;7.60;;;13.90;99.90;;;;;;4995640;28;20446;-47
2024/03/21 09:37:29;;;;;;;9.27;7.97;;;13.90;99.90;;;;;;4991010;28;20491;-48
2024/03/21 09:39:56;;;;;;;12.90;8.73;;;13.90;99.90;;;;;;4997480;28;20459;-47
2024/03/21 09:42:23;;;;;;;9.10;6.40;;;13.90;99.90;;;;;;4997075;28;20541;-47
2024/03/21 09:44:53;;;;;;;8.07;6.03;;;13.90;99.90;;;;;;4992999;28;20958;-47
2024/03/21 09:47:23;;;;;;;9.07;6.97;;;13.90;99.90;;;;;;4996149;28;21010;-47
2024/03/21 09:49:50;;;;;;;8.13;6.13;;;13.90;99.90;;;;;;4998390;28;20490;-47
2024/03/21 09:52:17;;;;;;;8.40;6.93;;;13.90;99.90;;;;;;4999633;28;20918;-47
2024/03/21 09:54:45;;;;;;;9.97;8.20;;;13.90;99.90;;;;;;5002613;28;20437;-48
2024/03/21 09:57:13;;;;;;;11.00;7.27;;;13.90;99.90;;;;;;5000536;28;20930;-47
2024/03/21 09:59:40;;;;;;;12.33;7.80;;;13.90;99.90;;;;;;4997060;28;20462;-47
2024/03/21 10:02:12;;;;;;;8.07;6.70;;;13.90;99.90;;;;;;4998045;28;20528;-47
2024/03/21 10:04:46;;;;;;;7.97;6.47;;;13.90;99.90;;;;;;4999873;28;21028;-47
2024/03/21 10:07:16;;;;;;;7.70;6.77;;;13.90;99.90;;;;;;4994410;28;20546;-46
2024/03/21 10:09:46;;;;;;;9.13;6.53;;;13.90;99.90;;;;;;4999267;28;20472;-47
2024/03/21 10:12:12;;;;;;;8.40;7.23;;;13.90;99.90;;;;;;5002054;28;20967;-47
2024/03/21 10:14:39;;;;;;;6.43;5.70;;;13.90;99.90;;;;;;4999978;28;20456;-47
2024/03/21 10:17:07;;;;;;;7.10;5.43;;;13.80;99.90;;;;;;5002033;28;20838;-47
2024/03/21 10:19:34;;;;;;;7.70;6.30;;;13.80;99.90;;;;;;5000301;28;20973;-47
2024/03/21 10:22:02;;;;;;;5.70;4.80;;;13.80;99.90;;;;;;5000658;28;20866;-48
2024/03/21 10:24:30;;;;;;;6.40;5.60;;;13.80;99.90;;;;;;4993018;28;20444;-47
2024/03/21 10:26:57;;;;;;;6.50;5.50;;;13.80;99.90;;;;;;4998625;28;20448;-47
2024/03/21 10:29:24;;;;;;;6.60;5.50;;;13.80;99.90;;;;;;4998420;28;20483;-48
2024/03/21 10:31:52;;;;;;;6.23;5.63;;;13.80;99.90;;;;;;5003540;28;20444;-47
2024/03/21 10:34:21;;;;;;;6.50;5.80;;;13.80;99.90;;;;;;5002038;28;20429;-47
2024/03/21 10:36:48;;;;;;;6.60;5.90;;;13.80;99.90;;;;;;4976445;28;21005;-48
2024/03/21 10:39:16;;;;;;;7.13;6.00;;;13.90;99.90;;;;;;5007969;28;20451;-47
2024/03/21 10:41:44;;;;;;;6.80;6.10;;;13.90;99.90;;;;;;4998953;28;20551;-47
2024/03/21 10:44:17;;;;;;;7.30;5.67;;;13.80;99.90;;;;;;5000551;28;20439;-47
2024/03/21 10:46:47;;;;;;;5.53;4.77;;;13.90;99.90;;;;;;5005159;28;20546;-47
2024/03/21 10:49:15;;;;;;;6.33;4.93;;;13.90;99.90;;;;;;5003977;28;20487;-48
2024/03/21 10:51:46;;;;;;;7.10;5.27;;;13.90;99.90;;;;;;5004214;28;20447;-47
2024/03/21 10:54:13;;;;;;;6.50;5.50;;;13.90;99.90;;;;;;5003625;28;20816;-47
2024/03/21 10:56:42;;;;;;;8.13;6.00;;;13.90;99.90;;;;;;5001566;28;20439;-47
2024/03/21 10:59:14;;;;;;;7.30;5.43;;;13.90;99.90;;;;;;4992128;28;20465;-47
2024/03/21 11:01:44;;;;;;;5.83;5.23;;;13.90;99.90;;;;;;5004858;28;20598;-47
2024/03/21 11:04:11;;;;;;;5.53;4.93;;;13.90;99.90;;;;;;4999829;28;20537;-47
2024/03/21 11:06:41;;;;;;;6.83;5.00;;;13.90;99.90;;;;;;4998869;28;20539;-47
2024/03/21 11:09:08;;;;;;;8.43;4.97;;;13.80;99.90;;;;;;4999438;28;20566;-47
2024/03/21 11:11:35;;;;;;;6.07;4.17;;;13.90;99.90;;;;;;4998869;28;20437;-47
2024/03/21 11:14:04;;;;;;;6.03;4.50;;;13.90;99.90;;;;;;4994882;28;20488;-47
2024/03/21 11:16:31;;;;;;;7.70;5.67;;;13.80;99.90;;;;;;4989444;28;20532;-47
2024/03/21 11:18:58;;;;;;;5.80;4.20;;;13.90;99.90;;;;;;4998542;28;20531;-48
2024/03/21 11:21:25;;;;;;;4.90;4.50;;;13.90;99.90;;;;;;5001104;28;20941;-47
2024/03/21 11:23:52;;;;;;;7.87;4.37;;;13.80;99.90;;;;;;4994813;28;20450;-47
2024/03/21 11:26:20;;;;;;;6.20;4.37;;;13.90;99.90;;;;;;4999473;28;20498;-47
2024/03/21 11:28:50;;;;;;;4.77;4.27;;;13.90;99.90;;;;;;5000024;28;20465;-47
2024/03/21 11:31:23;;;;;;;4.60;4.10;;;13.90;99.90;;;;;;4998465;28;20538;-47
2024/03/21 11:33:50;;;;;;;4.43;4.00;;;13.90;99.90;;;;;;4991270;28;20439;-48
2024/03/21 11:36:18;;;;;;;5.97;4.10;;;13.80;99.90;;;;;;4988799;28;20779;-47
2024/03/21 11:38:45;;;;;;;5.27;3.83;;;13.90;99.90;;;;;;4992784;28;20555;-47
2024/03/21 11:41:18;;;;;;;5.10;4.40;;;13.80;99.90;;;;;;4989590;28;20961;-47
2024/03/21 11:43:49;;;;;;;4.53;4.00;;;13.90;99.90;;;;;;4991989;28;20510;-47
2024/03/21 11:46:16;;;;;;;4.23;3.83;;;13.90;99.90;;;;;;4988579;28;20449;-47
2024/03/21 11:48:44;;;;;;;5.20;4.70;;;13.90;99.90;;;;;;4995043;28;20572;-48
2024/03/21 11:51:16;;;;;;;3.87;3.50;;;13.90;99.90;;;;;;4992704;28;20464;-47
2024/03/21 11:53:42;;;;;;;5.73;5.13;;;13.80;99.90;;;;;;4991749;28;20546;-47
2024/03/21 11:56:09;;;;;;;4.47;3.80;;;13.90;99.90;;;;;;4985743;28;20437;-48
2024/03/21 11:58:37;;;;;;;4.70;3.90;;;13.90;99.90;;;;;;4993585;28;20464;-48
2024/03/21 12:01:04;;;;;;;4.47;3.37;;;13.80;99.90;;;;;;4989583;28;20518;-48
2024/03/21 12:03:31;;;;;;;5.80;4.93;;;13.90;99.90;;;;;;4992418;28;20943;-48
2024/03/21 12:05:59;;;;;;;4.00;3.60;;;13.90;99.90;;;;;;4990729;28;20444;-47
2024/03/21 12:08:25;;;;;;;3.97;3.57;;;13.90;99.90;;;;;;4994482;28;20862;-48
2024/03/21 12:10:53;;;;;;;4.10;3.70;;;13.90;99.90;;;;;;4993953;28;20536;-48
2024/03/21 12:13:19;;;;;;;5.00;4.20;;;13.90;99.90;;;;;;4996444;28;20547;-48
2024/03/21 12:15:46;;;;;;;5.13;4.00;;;13.80;99.90;;;;;;4991138;28;20436;-48
2024/03/21 12:18:12;;;;;;;4.97;4.50;;;13.80;99.90;;;;;;4991475;28;20601;-47
2024/03/21 12:20:41;;;;;;;5.80;4.33;;;13.80;99.90;;;;;;4992535;28;20446;-48
2024/03/21 12:23:09;;;;;;;3.73;3.43;;;13.80;99.90;;;;;;4988242;28;20480;-49
2024/03/21 12:25:36;;;;;;;4.40;3.63;;;13.90;99.90;;;;;;5010483;28;20880;-47
2024/03/21 12:28:02;;;;;;;4.30;3.90;;;13.90;99.90;;;;;;4999273;28;20912;-47
2024/03/21 12:30:31;;;;;;;4.80;3.70;;;13.90;99.90;;;;;;4996769;28;20463;-47
2024/03/21 12:32:57;;;;;;;4.70;3.27;;;13.90;99.90;;;;;;4999636;28;20445;-47
2024/03/21 12:35:25;;;;;;;4.90;3.90;;;13.90;99.90;;;;;;5001056;28;20930;-47
2024/03/21 12:37:56;;;;;;;4.67;4.03;;;13.90;99.90;;;;;;4996918;28;20474;-48
2024/03/21 12:40:25;;;;;;;4.60;4.20;;;13.90;99.90;;;;;;4993441;28;21109;-47
2024/03/21 12:42:51;;;;;;;3.10;2.80;;;13.90;99.90;;;;;;4992917;28;20966;-47
2024/03/21 12:45:18;;;;;;;4.30;3.70;;;13.90;99.90;;;;;;4998458;28;20472;-47
2024/03/21 12:47:45;;;;;;;3.33;3.03;;;13.90;99.90;;;;;;4989953;28;20840;-47